Lowlands Sky — 3FJW9 — position and weather

sailwx.info

Track history (hours):
 
Tides and Currents Weather Stations Pressure Air Temp Water Temp Dewpoint Dewpoint Depression Visibility Wind Speed Wind Dir Waves Ship Positions

Lowlands Sky

Last reported at 2017-May-11 06:56 UTC. Time now 2017-Oct-20 14:50 UTC.
Position N 33°17' E 123°45'.
Warning: this ship's position is months out of date.

Length 177 m; draft 8.8 m.

Type: Cargo ship. MMSI: 370830000.

Date/timePositionNaut miles runAvg speedWind from/ knotsBaromVisibWave heightAir tempDewpointWater temp
2017-May-11 06:56N 33°17' E 123°45'512.1
2017-May-11 06:29N 33°11' E 123°45'612.4
2017-May-11 05:59N 33°05' E 123°45'8711.9
2017-May-10 22:41N 31°48' E 122°58'312.7
2017-May-10 22:26N 31°45' E 122°56'612.7
2017-May-10 21:56N 31°40' E 122°52'612.7
2017-May-10 21:30N 31°35' E 122°48'612.1
2017-May-10 20:59N 31°30' E 122°44'612.3
2017-May-10 20:30N 31°25' E 122°40'54 8.2
2017-May-10 13:55N 31°22' E 121°37'4 9.9
2017-May-10 13:29N 31°24' E 121°33'3 7.1
2017-May-10 13:00N 31°26' E 121°29'3 5.2
2017-May-10 12:30N 31°28' E 121°27'510.7
2017-May-10 12:00N 31°31' E 121°22'612.9
2017-May-10 11:31N 31°36' E 121°17'713.7
2017-May-10 11:00N 31°41' E 121°11'713.9
2017-May-10 10:30N 31°45' E 121°05'  
2017-May-07 15:05N 31°46' E 120°57'0 0.0
2017-May-07 14:56N 31°46' E 120°57'0 0.0
2017-May-07 14:29N 31°46' E 120°57'0 0.0
2017-May-07 13:17N 31°46' E 120°57'0 0.0
2017-May-07 12:53N 31°46' E 120°57'0 1.0
2017-May-07 12:30N 31°46' E 120°57'2 3.0
2017-May-07 11:59N 31°47' E 120°59'3 6.6
2017-May-07 11:30N 31°46' E 121°03'0 0.8
2017-May-07 10:59N 31°47' E 121°03'0 0.0
2017-May-07 10:26N 31°47' E 121°03'0 0.0
2017-May-07 10:00N 31°47' E 121°03'0 0.0
2017-May-07 09:30N 31°47' E 121°03'0 0.0
2017-May-07 09:00N 31°47' E 121°03'0 0.0
2017-May-07 08:30N 31°47' E 121°03'0 0.2
2017-May-07 08:00N 31°47' E 121°03'1 1.6
2017-May-07 07:30N 31°46' E 121°04'4 8.7
2017-May-07 06:59N 31°43' E 121°07'510.0
2017-May-07 06:30N 31°40' E 121°12'510.5
2017-May-07 06:00N 31°37' E 121°16'510.6
2017-May-07 05:30N 31°33' E 121°20'611.1
2017-May-07 05:00N 31°30' E 121°26'5 9.4
2017-May-07 04:30N 31°26' E 121°30'4 9.0
2017-May-07 04:00N 31°24' E 121°34'610.1
2017-May-07 03:26N 31°21' E 121°40'510.9
2017-May-07 03:00N 31°19' E 121°45'3212.0
2017-May-07 00:21N 31°06' E 122°19'411.2
2017-May-06 23:59N 31°07' E 122°24'4 8.1
2017-May-06 23:30N 31°07' E 122°28'3 5.1
2017-May-06 23:00N 31°08' E 122°31'24 8.5
2017-May-06 20:13N 31°08' E 122°59'2 9.5
2017-May-06 19:58N 31°07' E 123°02'31 9.0
2017-May-06 16:28N 30°57' E 123°36'  
Track history (hours):
 
Tides and Currents Weather Stations Pressure Air Temp Water Temp Dewpoint Dewpoint Depression Visibility Wind Speed Wind Dir Waves Ship Positions

Lowlands Sky

Last reported at 2017-May-11 06:56 UTC. Time now 2017-Oct-20 14:50 UTC.
Position N 33°17' E 123°45'.
Warning: this ship's position is months out of date.

Length 177 m; draft 8.8 m.

Type: Cargo ship. MMSI: 370830000.

Date/timePositionNaut miles runAvg speedWind from/ knotsBaromVisibWave heightAir tempDewpointWater temp
2017-May-11 06:56N 33°17' E 123°45'512.1
2017-May-11 06:29N 33°11' E 123°45'612.4
2017-May-11 05:59N 33°05' E 123°45'8711.9
2017-May-10 22:41N 31°48' E 122°58'312.7
2017-May-10 22:26N 31°45' E 122°56'612.7
2017-May-10 21:56N 31°40' E 122°52'612.7
2017-May-10 21:30N 31°35' E 122°48'612.1
2017-May-10 20:59N 31°30' E 122°44'612.3
2017-May-10 20:30N 31°25' E 122°40'54 8.2
2017-May-10 13:55N 31°22' E 121°37'4 9.9
2017-May-10 13:29N 31°24' E 121°33'3 7.1
2017-May-10 13:00N 31°26' E 121°29'3 5.2
2017-May-10 12:30N 31°28' E 121°27'510.7
2017-May-10 12:00N 31°31' E 121°22'612.9
2017-May-10 11:31N 31°36' E 121°17'713.7
2017-May-10 11:00N 31°41' E 121°11'713.9
2017-May-10 10:30N 31°45' E 121°05'  
2017-May-07 15:05N 31°46' E 120°57'0 0.0
2017-May-07 14:56N 31°46' E 120°57'0 0.0
2017-May-07 14:29N 31°46' E 120°57'0 0.0
2017-May-07 13:17N 31°46' E 120°57'0 0.0
2017-May-07 12:53N 31°46' E 120°57'0 1.0
2017-May-07 12:30N 31°46' E 120°57'2 3.0
2017-May-07 11:59N 31°47' E 120°59'3 6.6
2017-May-07 11:30N 31°46' E 121°03'0 0.8
2017-May-07 10:59N 31°47' E 121°03'0 0.0
2017-May-07 10:26N 31°47' E 121°03'0 0.0
2017-May-07 10:00N 31°47' E 121°03'0 0.0
2017-May-07 09:30N 31°47' E 121°03'0 0.0
2017-May-07 09:00N 31°47' E 121°03'0 0.0
2017-May-07 08:30N 31°47' E 121°03'0 0.2
2017-May-07 08:00N 31°47' E 121°03'1 1.6
2017-May-07 07:30N 31°46' E 121°04'4 8.7
2017-May-07 06:59N 31°43' E 121°07'510.0
2017-May-07 06:30N 31°40' E 121°12'510.5
2017-May-07 06:00N 31°37' E 121°16'510.6
2017-May-07 05:30N 31°33' E 121°20'611.1
2017-May-07 05:00N 31°30' E 121°26'5 9.4
2017-May-07 04:30N 31°26' E 121°30'4 9.0
2017-May-07 04:00N 31°24' E 121°34'610.1
2017-May-07 03:26N 31°21' E 121°40'510.9
2017-May-07 03:00N 31°19' E 121°45'3212.0
2017-May-07 00:21N 31°06' E 122°19'411.2
2017-May-06 23:59N 31°07' E 122°24'4 8.1
2017-May-06 23:30N 31°07' E 122°28'3 5.1
2017-May-06 23:00N 31°08' E 122°31'24 8.5
2017-May-06 20:13N 31°08' E 122°59'2 9.5
2017-May-06 19:58N 31°07' E 123°02'31 9.0
2017-May-06 16:28N 30°57' E 123°36'  

Dump ship's entire track history